createdAt,value
2023-10-15T00:01:43.911Z,11.68
2023-10-15T00:03:48.569Z,11.39
2023-10-15T00:05:51.505Z,11.76
2023-10-15T00:07:54.533Z,11.67
2023-10-15T00:09:57.183Z,11.27
2023-10-15T00:12:00.117Z,11.19
2023-10-15T00:14:06.837Z,11.72
2023-10-15T00:16:09.489Z,11.51
2023-10-15T00:18:12.323Z,11.18
2023-10-15T00:20:19.790Z,11.27
2023-10-15T00:22:23.246Z,11.31
2023-10-15T00:24:28.147Z,11.73
2023-10-15T00:26:31.611Z,11.37
2023-10-15T00:28:34.935Z,11.07
2023-10-15T00:30:38.958Z,11.11
2023-10-15T00:32:47.312Z,11.29
2023-10-15T00:34:51.013Z,10.86
2023-10-15T00:36:57.467Z,11.07
2023-10-15T00:39:00.150Z,10.77
2023-10-15T00:41:09.125Z,11.27
2023-10-15T00:43:16.250Z,10.92
2023-10-15T00:45:21.227Z,10.93
2023-10-15T00:47:24.620Z,10.72
2023-10-15T00:49:27.886Z,10.89
2023-10-15T00:51:30.549Z,10.65
2023-10-15T00:53:34.527Z,10.62
2023-10-15T00:55:43.879Z,10.79
2023-10-15T00:57:57.558Z,10.58
2023-10-15T01:00:01.139Z,10.55
2023-10-15T01:02:05.338Z,10.50
2023-10-15T01:04:09.673Z,10.58
2023-10-15T01:06:15.832Z,10.78
2023-10-15T01:08:18.744Z,10.56
2023-10-15T01:10:34.124Z,10.64
2023-10-15T01:12:36.968Z,10.33
2023-10-15T01:14:45.835Z,10.55
2023-10-15T01:16:48.727Z,10.32
2023-10-15T01:19:18.893Z,10.48
2023-10-15T01:21:21.649Z,10.18
2023-10-15T01:23:33.335Z,10.30
2023-10-15T01:25:47.423Z,10.43
2023-10-15T01:27:50.365Z,9.99
2023-10-15T01:29:53.244Z,9.96
2023-10-15T01:32:09.195Z,9.97
2023-10-15T01:34:14.420Z,10.14
2023-10-15T01:36:29.443Z,9.85
2023-10-15T01:38:32.505Z,9.82
2023-10-15T01:40:38.864Z,9.89
2023-10-15T01:42:43.050Z,9.62
2023-10-15T01:44:49.799Z,9.54
2023-10-15T01:47:05.243Z,9.56
2023-10-15T01:49:09.325Z,9.57
2023-10-15T01:51:13.828Z,9.56
2023-10-15T01:53:18.042Z,9.63
2023-10-15T01:55:20.755Z,9.49
2023-10-15T01:57:24.673Z,9.65
2023-10-15T01:59:28.682Z,9.84
2023-10-15T02:01:38.881Z,9.42
2023-10-15T02:03:46.467Z,9.36
2023-10-15T02:05:49.538Z,9.32
2023-10-15T02:07:52.936Z,9.29
2023-10-15T02:09:56.359Z,9.08
2023-10-15T02:11:58.981Z,9.26
2023-10-15T02:14:02.095Z,9.32
2023-10-15T02:16:11.286Z,9.43
2023-10-15T02:18:19.344Z,9.59
2023-10-15T02:20:43.625Z,9.34
2023-10-15T02:22:48.678Z,9.54
2023-10-15T02:24:53.768Z,9.09
2023-10-15T02:26:56.804Z,9.22
2023-10-15T02:29:08.584Z,9.21
2023-10-15T02:31:12.054Z,8.97
2023-10-15T02:33:18.508Z,9.46
2023-10-15T02:35:25.637Z,9.56
2023-10-15T02:37:29.662Z,9.03
2023-10-15T02:39:39.963Z,9.25
2023-10-15T02:41:43.372Z,9.11
2023-10-15T02:43:58.521Z,9.11
2023-10-15T02:46:02.025Z,9.07
2023-10-15T02:48:12.296Z,9.34
2023-10-15T02:50:19.878Z,8.95
2023-10-15T02:52:25.010Z,9.04
2023-10-15T02:54:38.180Z,8.88
2023-10-15T02:56:42.756Z,8.87
2023-10-15T02:58:47.076Z,9.34
2023-10-15T03:00:53.573Z,8.72
2023-10-15T03:02:57.324Z,9.33
2023-10-15T03:05:07.950Z,9.04
2023-10-15T03:07:20.995Z,8.86
2023-10-15T03:09:27.714Z,8.78
2023-10-15T03:11:34.769Z,9.14
2023-10-15T03:13:46.458Z,9.01
2023-10-15T03:15:51.671Z,9.01
2023-10-15T03:17:54.564Z,8.69
2023-10-15T03:19:57.855Z,8.67
2023-10-15T03:22:02.117Z,8.62
2023-10-15T03:24:06.516Z,9.01
2023-10-15T03:26:11.985Z,8.41
2023-10-15T03:28:15.082Z,8.38
2023-10-15T03:30:23.796Z,8.75
2023-10-15T03:32:33.663Z,8.50
2023-10-15T03:34:37.570Z,8.91
2023-10-15T03:36:49.036Z,9.03
2023-10-15T03:38:52.620Z,8.76
2023-10-15T03:41:12.809Z,8.40
2023-10-15T03:43:22.443Z,8.39
2023-10-15T03:45:28.672Z,8.26
2023-10-15T03:47:31.452Z,8.14
2023-10-15T03:49:34.482Z,8.38
2023-10-15T03:51:43.128Z,8.32
2023-10-15T03:53:46.260Z,8.38
2023-10-15T03:55:53.034Z,8.16
2023-10-15T03:57:56.183Z,8.42
2023-10-15T03:59:59.606Z,8.06
2023-10-15T04:02:03.849Z,8.15
2023-10-15T04:04:07.085Z,8.31
2023-10-15T04:06:11.546Z,7.87
2023-10-15T04:08:20.609Z,7.99
2023-10-15T04:10:36.130Z,7.93
2023-10-15T04:12:42.404Z,8.34
2023-10-15T04:14:45.386Z,8.45
2023-10-15T04:16:48.997Z,7.97
2023-10-15T04:18:52.366Z,8.05
2023-10-15T04:20:56.946Z,8.32
2023-10-15T04:23:00.297Z,8.24
2023-10-15T04:25:07.966Z,8.09
2023-10-15T04:27:26.185Z,8.07
2023-10-15T04:29:32.732Z,8.17
2023-10-15T04:31:35.585Z,8.18
2023-10-15T04:33:38.792Z,7.99
2023-10-15T04:35:45.617Z,8.05
2023-10-15T04:37:53.801Z,8.24
2023-10-15T04:40:10.805Z,8.15
2023-10-15T04:42:23.242Z,8.43
2023-10-15T04:44:33.053Z,8.07
2023-10-15T04:46:42.771Z,8.13
2023-10-15T04:48:48.466Z,8.25
2023-10-15T04:50:51.468Z,8.02
2023-10-15T04:52:54.453Z,8.30
2023-10-15T04:54:57.547Z,8.13
2023-10-15T04:57:00.348Z,8.00
2023-10-15T04:59:03.100Z,8.12
2023-10-15T05:01:06.526Z,8.05
2023-10-15T05:03:11.119Z,8.01
2023-10-15T05:05:15.049Z,8.35
2023-10-15T05:07:18.104Z,8.36
2023-10-15T05:09:24.078Z,8.36
2023-10-15T05:11:26.877Z,7.99
2023-10-15T05:13:29.729Z,8.66
2023-10-15T05:15:34.445Z,8.25
2023-10-15T05:17:37.710Z,8.09
2023-10-15T05:19:41.631Z,8.54
2023-10-15T05:21:46.295Z,8.29
2023-10-15T05:23:48.857Z,7.97
2023-10-15T05:25:51.730Z,8.04
2023-10-15T05:27:54.690Z,7.80
2023-10-15T05:29:58.809Z,8.07
2023-10-15T05:32:01.698Z,8.30
2023-10-15T05:34:04.579Z,8.09
2023-10-15T05:36:08.105Z,8.15
2023-10-15T05:38:11.831Z,7.89
2023-10-15T05:40:14.736Z,8.30
2023-10-15T05:42:18.108Z,8.60
2023-10-15T05:44:20.920Z,7.89
2023-10-15T05:46:23.977Z,8.66
2023-10-15T05:48:27.629Z,8.88
2023-10-15T05:50:31.310Z,8.50
2023-10-15T05:52:34.879Z,8.18
2023-10-15T05:54:37.596Z,8.33
2023-10-15T05:56:41.134Z,8.75
2023-10-15T05:58:44.137Z,8.81
2023-10-15T06:00:47.364Z,8.51
2023-10-15T06:02:52.413Z,8.73
2023-10-15T06:04:55.291Z,8.64
2023-10-15T06:06:59.730Z,8.92
2023-10-15T06:09:02.433Z,8.84
2023-10-15T06:11:04.885Z,8.93
2023-10-15T06:13:07.633Z,9.36
2023-10-15T06:15:16.420Z,8.86
2023-10-15T06:17:22.651Z,9.06
2023-10-15T06:19:26.793Z,9.22
2023-10-15T06:21:29.763Z,9.09
2023-10-15T06:23:33.179Z,9.35
2023-10-15T06:25:37.104Z,9.92
2023-10-15T06:27:43.267Z,9.44
2023-10-15T06:29:46.320Z,9.89
2023-10-15T06:31:49.525Z,10.02
2023-10-15T06:33:52.499Z,9.80
2023-10-15T06:35:56.994Z,10.04
2023-10-15T06:38:01.612Z,10.07
2023-10-15T06:40:18.883Z,10.19
2023-10-15T06:42:24.700Z,9.96
2023-10-15T06:44:27.479Z,10.14
2023-10-15T06:46:31.654Z,10.54
2023-10-15T06:48:39.819Z,10.03
2023-10-15T06:50:43.505Z,10.13
2023-10-15T06:52:46.598Z,10.27
2023-10-15T06:54:49.952Z,9.78
2023-10-15T06:56:52.667Z,9.72
2023-10-15T06:58:56.782Z,9.93
2023-10-15T07:01:00.794Z,9.91
2023-10-15T07:03:03.896Z,10.21
2023-10-15T07:05:07.625Z,10.23
2023-10-15T07:07:10.899Z,10.46
2023-10-15T07:09:15.448Z,10.70
2023-10-15T07:11:18.096Z,10.74
2023-10-15T07:13:21.715Z,10.92
2023-10-15T07:15:25.845Z,11.08
2023-10-15T07:17:29.620Z,11.35
2023-10-15T07:19:32.854Z,11.15
2023-10-15T07:21:35.527Z,11.20
2023-10-15T07:23:38.288Z,11.43
2023-10-15T07:25:40.939Z,11.61
2023-10-15T07:27:47.436Z,11.67
2023-10-15T07:29:50.143Z,11.98
2023-10-15T07:31:53.020Z,11.72
2023-10-15T07:33:55.879Z,11.79
2023-10-15T07:36:00.826Z,12.36
2023-10-15T07:38:04.620Z,12.10
2023-10-15T07:40:16.967Z,12.37
2023-10-15T07:42:20.457Z,12.17
2023-10-15T07:44:23.310Z,12.46
2023-10-15T07:46:26.710Z,12.54
2023-10-15T07:48:29.589Z,12.57
2023-10-15T07:50:36.099Z,12.67
2023-10-15T07:52:41.866Z,12.90
2023-10-15T07:54:45.259Z,12.73
2023-10-15T07:56:48.677Z,12.73
2023-10-15T07:58:52.734Z,12.86
2023-10-15T08:01:09.164Z,12.94
2023-10-15T08:03:14.739Z,13.08
2023-10-15T08:05:17.999Z,13.33
2023-10-15T08:07:22.247Z,13.12
2023-10-15T08:09:25.453Z,13.26
2023-10-15T08:11:28.527Z,13.40
2023-10-15T08:13:31.789Z,13.11
2023-10-15T08:15:35.498Z,13.39
2023-10-15T08:17:39.208Z,13.30
2023-10-15T08:19:42.399Z,13.51
2023-10-15T08:21:45.634Z,13.32
2023-10-15T08:23:48.520Z,13.62
2023-10-15T08:25:52.790Z,13.14
2023-10-15T08:27:55.800Z,13.18
2023-10-15T08:29:59.077Z,12.89
2023-10-15T08:32:04.135Z,13.19
2023-10-15T08:34:06.886Z,13.39
2023-10-15T08:36:10.356Z,13.16
2023-10-15T08:38:14.262Z,13.13
2023-10-15T08:40:19.412Z,12.92
2023-10-15T08:42:32.504Z,13.05
2023-10-15T08:44:37.677Z,13.06
2023-10-15T08:46:43.346Z,13.17
2023-10-15T08:48:49.795Z,13.52
2023-10-15T08:50:56.495Z,13.38
2023-10-15T08:53:01.914Z,13.21
2023-10-15T08:55:08.542Z,13.27
2023-10-15T08:57:11.572Z,13.47
2023-10-15T08:59:15.559Z,13.49
2023-10-15T09:01:19.144Z,13.83
2023-10-15T09:03:25.438Z,13.58
2023-10-15T09:05:42.317Z,13.67
2023-10-15T09:07:45.859Z,13.83
2023-10-15T09:09:51.117Z,13.87
2023-10-15T09:11:56.155Z,13.94
2023-10-15T09:14:00.289Z,13.85
2023-10-15T09:16:03.564Z,13.65
2023-10-15T09:18:07.050Z,13.82
2023-10-15T09:20:12.024Z,13.96
2023-10-15T09:22:17.741Z,13.81
2023-10-15T09:24:22.453Z,13.78
2023-10-15T09:26:25.664Z,13.90
2023-10-15T09:28:30.157Z,14.31
2023-10-15T09:30:33.940Z,14.22
2023-10-15T09:32:36.989Z,14.16
2023-10-15T09:34:40.668Z,14.34
2023-10-15T09:36:44.083Z,14.51
2023-10-15T09:38:47.556Z,14.52
2023-10-15T09:40:50.763Z,14.58
2023-10-15T09:42:56.729Z,14.77
2023-10-15T09:45:04.504Z,14.76
2023-10-15T09:47:09.885Z,14.80
2023-10-15T09:49:15.090Z,15.27
2023-10-15T09:51:19.139Z,15.25
2023-10-15T09:53:24.169Z,14.96
2023-10-15T09:55:33.997Z,14.95
2023-10-15T09:57:37.212Z,14.89
2023-10-15T09:59:39.976Z,14.88
2023-10-15T10:01:48.536Z,15.26
2023-10-15T10:04:07.013Z,14.63
2023-10-15T10:06:33.572Z,14.70
2023-10-15T10:09:05.587Z,14.85
2023-10-15T10:11:18.191Z,14.79
2023-10-15T10:13:35.919Z,14.35
2023-10-15T10:15:56.671Z,14.73
2023-10-15T10:18:01.175Z,14.90
2023-10-15T10:20:23.970Z,14.94
2023-10-15T10:22:31.250Z,15.10
2023-10-15T10:24:47.294Z,15.13
2023-10-15T10:26:55.755Z,15.25
2023-10-15T10:29:01.488Z,15.28
2023-10-15T10:31:06.810Z,15.41
2023-10-15T10:33:10.936Z,15.39
2023-10-15T10:35:22.051Z,15.29
2023-10-15T10:37:25.253Z,15.75
2023-10-15T10:39:45.448Z,15.69
2023-10-15T10:41:52.886Z,15.84
2023-10-15T10:44:10.294Z,15.68
2023-10-15T10:46:24.648Z,15.89
2023-10-15T10:48:29.571Z,16.03
2023-10-15T10:50:47.023Z,16.08
2023-10-15T10:53:13.591Z,16.46
2023-10-15T10:55:35.402Z,16.04
2023-10-15T10:57:44.386Z,15.98
2023-10-15T10:59:47.854Z,15.79
2023-10-15T11:01:52.309Z,16.08
2023-10-15T11:03:55.068Z,16.24
2023-10-15T11:05:57.943Z,15.97
2023-10-15T11:08:01.047Z,16.50
2023-10-15T11:10:07.571Z,16.59
2023-10-15T11:12:11.209Z,16.11
2023-10-15T11:14:15.037Z,16.48
2023-10-15T11:16:18.590Z,16.44
2023-10-15T11:18:24.876Z,17.04
2023-10-15T11:20:29.127Z,16.79
2023-10-15T11:22:32.201Z,16.57
2023-10-15T11:24:35.246Z,16.49
2023-10-15T11:26:43.384Z,16.90
2023-10-15T11:28:47.248Z,16.58
2023-10-15T11:30:51.000Z,16.83
2023-10-15T11:32:53.681Z,16.57
2023-10-15T11:34:56.682Z,16.47
2023-10-15T11:36:59.494Z,16.16
2023-10-15T11:39:09.927Z,16.28
2023-10-15T11:41:14.597Z,16.44
2023-10-15T11:43:23.636Z,16.44
2023-10-15T11:45:33.050Z,16.46
2023-10-15T11:47:37.079Z,16.51
2023-10-15T11:49:40.742Z,16.11
2023-10-15T11:51:43.838Z,16.32
2023-10-15T11:53:48.358Z,16.52
2023-10-15T11:55:56.259Z,15.94
2023-10-15T11:58:12.230Z,16.26
2023-10-15T12:00:24.761Z,16.36
2023-10-15T12:02:29.773Z,16.25
2023-10-15T12:04:34.431Z,16.18
2023-10-15T12:06:37.396Z,16.41
2023-10-15T12:08:40.649Z,16.08
2023-10-15T12:10:47.102Z,16.03
2023-10-15T12:12:51.494Z,16.41
2023-10-15T12:14:54.016Z,16.38
2023-10-15T12:16:56.982Z,16.21
2023-10-15T12:19:00.056Z,16.46
2023-10-15T12:21:02.982Z,16.50
2023-10-15T12:23:05.905Z,16.30
2023-10-15T12:25:09.208Z,16.17
2023-10-15T12:27:12.771Z,16.11
2023-10-15T12:29:28.188Z,16.38
2023-10-15T12:31:35.105Z,15.97
2023-10-15T12:33:40.547Z,15.89
2023-10-15T12:35:46.184Z,15.88
2023-10-15T12:37:51.481Z,15.82
2023-10-15T12:39:54.570Z,15.74
2023-10-15T12:41:58.286Z,16.08
2023-10-15T12:44:01.845Z,16.06
2023-10-15T12:46:05.610Z,15.83
2023-10-15T12:48:10.626Z,15.56
2023-10-15T12:50:17.049Z,15.84
2023-10-15T12:52:20.689Z,15.98
2023-10-15T12:54:23.971Z,15.92
2023-10-15T12:56:27.145Z,15.97
2023-10-15T12:58:30.011Z,16.19
2023-10-15T13:00:34.538Z,15.71
2023-10-15T13:02:38.311Z,15.98
2023-10-15T13:04:41.505Z,16.02
2023-10-15T13:06:45.077Z,16.02
2023-10-15T13:08:47.867Z,16.25
2023-10-15T13:10:51.616Z,16.20
2023-10-15T13:12:56.352Z,16.24
2023-10-15T13:15:00.088Z,16.68
2023-10-15T13:17:03.246Z,16.12
2023-10-15T13:19:06.257Z,16.14
2023-10-15T13:21:12.376Z,16.71
2023-10-15T13:23:15.360Z,16.28
2023-10-15T13:25:18.837Z,16.21
2023-10-15T13:27:22.156Z,15.86
2023-10-15T13:29:25.486Z,16.16
2023-10-15T13:31:28.967Z,15.91
2023-10-15T13:33:32.670Z,15.72
2023-10-15T13:35:36.923Z,15.56
2023-10-15T13:37:41.525Z,15.60
2023-10-15T13:39:44.305Z,15.62
2023-10-15T13:41:48.914Z,15.55
2023-10-15T13:43:52.242Z,15.61
2023-10-15T13:45:54.953Z,15.52
2023-10-15T13:47:57.950Z,15.46
2023-10-15T13:50:01.158Z,15.74
2023-10-15T13:52:05.744Z,15.44
2023-10-15T13:54:08.808Z,15.28
2023-10-15T13:56:12.088Z,15.53
2023-10-15T13:58:14.900Z,15.48
2023-10-15T14:00:18.379Z,15.02
2023-10-15T14:02:21.329Z,15.06
2023-10-15T14:04:24.723Z,15.04
2023-10-15T14:06:29.211Z,14.85
2023-10-15T14:08:31.880Z,14.72
2023-10-15T14:10:34.533Z,14.83
2023-10-15T14:12:37.427Z,14.79
2023-10-15T14:14:40.971Z,14.31
2023-10-15T14:16:44.053Z,14.63
2023-10-15T14:18:49.244Z,14.47
2023-10-15T14:20:52.565Z,14.48
2023-10-15T14:22:59.309Z,14.71
2023-10-15T14:25:02.821Z,14.03
2023-10-15T14:27:06.609Z,14.07
2023-10-15T14:29:09.294Z,14.23
2023-10-15T14:31:13.551Z,14.23
2023-10-15T14:33:16.530Z,14.30
2023-10-15T14:35:20.511Z,14.19
2023-10-15T14:37:23.653Z,14.15
2023-10-15T14:39:27.730Z,13.87
2023-10-15T14:41:31.272Z,14.08
2023-10-15T14:43:34.691Z,13.98
2023-10-15T14:45:39.036Z,13.97
2023-10-15T14:47:42.928Z,14.17
2023-10-15T14:49:47.925Z,14.01
2023-10-15T14:51:51.115Z,14.21
2023-10-15T14:53:54.713Z,13.95
2023-10-15T14:55:57.872Z,14.13
2023-10-15T14:58:00.563Z,13.65
2023-10-15T15:00:06.193Z,13.58
2023-10-15T15:02:12.329Z,13.70
2023-10-15T15:04:17.925Z,13.18
2023-10-15T15:06:21.034Z,13.66
2023-10-15T15:08:24.189Z,13.63
2023-10-15T15:10:27.308Z,13.30
2023-10-15T15:12:30.150Z,13.23
2023-10-15T15:14:33.258Z,13.60
2023-10-15T15:16:36.359Z,12.89
2023-10-15T15:18:39.184Z,12.81
2023-10-15T15:20:42.281Z,12.72
2023-10-15T15:22:45.104Z,12.82
2023-10-15T15:24:48.113Z,12.45
2023-10-15T15:26:51.225Z,12.86
2023-10-15T15:28:54.398Z,13.04
2023-10-15T15:30:57.533Z,12.34
2023-10-15T15:33:02.482Z,12.36
2023-10-15T15:35:09.250Z,12.72
2023-10-15T15:37:11.982Z,12.75
2023-10-15T15:39:14.627Z,12.51
2023-10-15T15:41:17.635Z,11.92
2023-10-15T15:43:22.791Z,11.92
2023-10-15T15:45:26.469Z,11.84
2023-10-15T15:47:29.588Z,11.91
2023-10-15T15:49:32.781Z,11.57
2023-10-15T15:51:35.728Z,11.32
2023-10-15T15:53:38.427Z,11.22
2023-10-15T15:55:44.817Z,11.10
2023-10-15T15:57:48.067Z,11.31
2023-10-15T15:59:52.901Z,11.00
2023-10-15T16:01:56.225Z,10.88
2023-10-15T16:04:03.074Z,11.01
2023-10-15T16:06:06.303Z,11.46
2023-10-15T16:08:10.701Z,10.96
2023-10-15T16:10:13.758Z,10.64
2023-10-15T16:12:17.107Z,11.17
2023-10-15T16:14:20.360Z,10.61
2023-10-15T16:16:23.577Z,10.92
2023-10-15T16:18:28.612Z,10.62
2023-10-15T16:20:33.976Z,10.43
2023-10-15T16:22:38.224Z,10.55
2023-10-15T16:24:46.869Z,10.62
2023-10-15T16:26:52.682Z,10.49
2023-10-15T16:28:56.154Z,10.25
2023-10-15T16:30:59.836Z,10.20
2023-10-15T16:33:04.316Z,10.36
2023-10-15T16:35:18.156Z,10.06
2023-10-15T16:37:21.282Z,10.18
2023-10-15T16:39:24.106Z,10.57
2023-10-15T16:41:27.342Z,10.22
2023-10-15T16:43:34.478Z,10.50
2023-10-15T16:45:42.622Z,10.18
2023-10-15T16:47:46.037Z,10.46
2023-10-15T16:49:49.284Z,10.15
2023-10-15T16:51:53.230Z,10.21
2023-10-15T16:53:56.124Z,10.25
2023-10-15T16:55:59.803Z,10.17
2023-10-15T16:58:03.999Z,10.34
2023-10-15T17:00:10.897Z,10.12
2023-10-15T17:02:13.703Z,10.51
2023-10-15T17:04:17.538Z,10.17
2023-10-15T17:06:20.963Z,10.48
2023-10-15T17:08:23.937Z,9.96
2023-10-15T17:10:27.408Z,10.67
2023-10-15T17:12:30.489Z,10.26
2023-10-15T17:14:33.761Z,10.05
2023-10-15T17:16:36.941Z,10.22
2023-10-15T17:18:40.346Z,10.01
2023-10-15T17:20:44.373Z,9.88
2023-10-15T17:22:49.565Z,10.14
2023-10-15T17:24:53.007Z,10.25
2023-10-15T17:26:59.816Z,10.04
2023-10-15T17:29:05.910Z,9.86
2023-10-15T17:31:09.070Z,10.32
2023-10-15T17:33:13.455Z,9.88
2023-10-15T17:35:17.553Z,9.73
2023-10-15T17:37:21.738Z,9.82
2023-10-15T17:39:30.005Z,9.68
2023-10-15T17:41:33.460Z,9.58
2023-10-15T17:43:36.933Z,9.74
2023-10-15T17:45:39.869Z,9.57
2023-10-15T17:47:42.866Z,9.36
2023-10-15T17:49:46.437Z,9.37
2023-10-15T17:51:50.471Z,9.32
2023-10-15T17:53:53.662Z,9.19
2023-10-15T17:55:59.701Z,9.40
2023-10-15T17:58:03.872Z,9.40
2023-10-15T18:00:13.476Z,9.44
2023-10-15T18:02:16.439Z,8.96
2023-10-15T18:04:19.730Z,9.57
2023-10-15T18:06:24.359Z,9.23
2023-10-15T18:08:27.469Z,8.98
2023-10-15T18:10:30.420Z,9.31
2023-10-15T18:12:33.644Z,8.97
2023-10-15T18:14:38.270Z,8.96
2023-10-15T18:16:41.742Z,8.91
2023-10-15T18:18:44.924Z,9.06
2023-10-15T18:20:48.144Z,8.98
2023-10-15T18:22:51.491Z,8.76
2023-10-15T18:24:55.164Z,9.03
2023-10-15T18:26:58.238Z,8.87
2023-10-15T18:29:01.917Z,8.81
2023-10-15T18:31:08.287Z,8.70
2023-10-15T18:33:12.467Z,8.67
2023-10-15T18:35:18.622Z,9.22
2023-10-15T18:37:22.844Z,8.60
2023-10-15T18:39:26.438Z,9.11
2023-10-15T18:41:29.384Z,8.50
2023-10-15T18:43:36.289Z,9.08
2023-10-15T18:45:39.154Z,8.72
2023-10-15T18:47:42.799Z,8.19
2023-10-15T18:49:46.301Z,8.32
2023-10-15T18:51:49.486Z,8.09
2023-10-15T18:53:52.638Z,8.46
2023-10-15T18:55:55.609Z,7.97
2023-10-15T18:57:59.174Z,7.93
2023-10-15T19:00:04.880Z,7.95
2023-10-15T19:02:08.228Z,8.23
2023-10-15T19:04:11.530Z,8.59
2023-10-15T19:06:14.947Z,7.86
2023-10-15T19:08:17.973Z,7.80
2023-10-15T19:10:20.949Z,7.75
2023-10-15T19:12:24.226Z,7.51
2023-10-15T19:14:27.444Z,7.71
2023-10-15T19:16:31.364Z,7.77
2023-10-15T19:18:35.148Z,7.73
2023-10-15T19:20:42.069Z,7.91
2023-10-15T19:22:45.321Z,8.18
2023-10-15T19:24:48.537Z,7.94
2023-10-15T19:26:53.147Z,7.32
2023-10-15T19:28:56.514Z,7.77
2023-10-15T19:31:00.331Z,7.67
2023-10-15T19:33:03.776Z,7.42
2023-10-15T19:35:07.120Z,7.58
2023-10-15T19:37:11.989Z,7.44
2023-10-15T19:39:17.369Z,7.92
2023-10-15T19:41:20.827Z,7.82
2023-10-15T19:43:23.933Z,7.62
2023-10-15T19:45:27.953Z,8.09
2023-10-15T19:47:32.623Z,7.66
2023-10-15T19:49:36.334Z,7.41
2023-10-15T19:51:42.756Z,7.70
2023-10-15T19:53:45.928Z,7.65
2023-10-15T19:55:48.681Z,7.65
2023-10-15T19:57:55.431Z,7.63
2023-10-15T19:59:59.650Z,7.61
2023-10-15T20:02:03.165Z,7.30
2023-10-15T20:04:09.416Z,7.33
2023-10-15T20:06:13.048Z,7.97
2023-10-15T20:08:16.661Z,7.55
2023-10-15T20:10:19.470Z,7.49
2023-10-15T20:12:23.976Z,7.61
2023-10-15T20:14:30.559Z,7.80
2023-10-15T20:16:34.001Z,7.50
2023-10-15T20:18:37.382Z,7.73
2023-10-15T20:20:43.242Z,7.70
2023-10-15T20:22:47.311Z,7.88
2023-10-15T20:24:50.725Z,7.85
2023-10-15T20:26:53.539Z,7.59
2023-10-15T20:28:56.183Z,7.90
2023-10-15T20:30:59.862Z,7.69
2023-10-15T20:33:02.879Z,7.67
2023-10-15T20:35:06.347Z,7.67
2023-10-15T20:37:09.215Z,7.49
2023-10-15T20:39:19.804Z,7.40
2023-10-15T20:41:22.997Z,7.43
2023-10-15T20:43:25.841Z,7.46
2023-10-15T20:45:29.004Z,7.86
2023-10-15T20:47:31.784Z,7.13
2023-10-15T20:49:34.682Z,7.27
2023-10-15T20:51:37.899Z,7.57
2023-10-15T20:53:41.245Z,7.59
2023-10-15T20:55:44.423Z,7.53
2023-10-15T20:57:48.093Z,7.45
2023-10-15T20:59:50.962Z,7.36
2023-10-15T21:01:54.000Z,7.17
2023-10-15T21:03:57.150Z,7.27
2023-10-15T21:06:03.052Z,7.25
2023-10-15T21:08:08.212Z,7.10
2023-10-15T21:10:13.248Z,7.49
2023-10-15T21:12:17.081Z,7.06
2023-10-15T21:14:20.116Z,6.84
2023-10-15T21:16:23.151Z,7.20
2023-10-15T21:18:26.449Z,7.04
2023-10-15T21:20:29.154Z,7.06
2023-10-15T21:22:32.136Z,7.10
2023-10-15T21:24:36.731Z,7.14
2023-10-15T21:26:42.561Z,7.76
2023-10-15T21:28:45.260Z,6.77
2023-10-15T21:30:47.760Z,7.01
2023-10-15T21:32:51.070Z,6.98
2023-10-15T21:34:54.167Z,7.68
2023-10-15T21:37:00.881Z,6.94
2023-10-15T21:39:04.787Z,7.44
2023-10-15T21:41:07.870Z,6.98
2023-10-15T21:43:10.998Z,7.06
2023-10-15T21:45:14.650Z,7.22
2023-10-15T21:47:18.048Z,6.97
2023-10-15T21:49:21.287Z,7.20
2023-10-15T21:51:24.031Z,6.71
2023-10-15T21:53:26.490Z,6.98
2023-10-15T21:55:32.190Z,6.61
2023-10-15T21:57:35.136Z,6.52
2023-10-15T21:59:37.825Z,6.55
2023-10-15T22:01:40.863Z,6.52
2023-10-15T22:03:46.100Z,6.20
2023-10-15T22:05:49.745Z,6.45
2023-10-15T22:07:54.242Z,6.42
2023-10-15T22:09:56.858Z,6.79
2023-10-15T22:11:59.339Z,6.56
2023-10-15T22:14:02.115Z,6.09
2023-10-15T22:16:09.578Z,6.36
2023-10-15T22:18:16.795Z,6.32
2023-10-15T22:20:23.526Z,6.54
2023-10-15T22:22:26.733Z,6.05
2023-10-15T22:24:30.792Z,6.56
2023-10-15T22:26:33.182Z,6.54
2023-10-15T22:28:38.571Z,5.95
2023-10-15T22:30:43.005Z,6.57
2023-10-15T22:32:49.847Z,6.18
2023-10-15T22:34:52.606Z,6.07
2023-10-15T22:36:55.579Z,5.97
2023-10-15T22:38:58.204Z,6.03
2023-10-15T22:41:01.166Z,5.97
2023-10-15T22:43:04.197Z,6.24
2023-10-15T22:45:11.704Z,6.05
2023-10-15T22:47:15.623Z,6.18
2023-10-15T22:49:21.067Z,6.00
2023-10-15T22:51:24.050Z,6.01
2023-10-15T22:53:27.892Z,6.15
2023-10-15T22:55:31.543Z,6.02
2023-10-15T22:57:34.370Z,6.03
2023-10-15T22:59:37.907Z,6.46
2023-10-15T23:01:40.852Z,5.95
2023-10-15T23:03:43.761Z,6.01
2023-10-15T23:05:47.316Z,6.15
2023-10-15T23:07:51.044Z,6.22
2023-10-15T23:09:54.305Z,6.19
2023-10-15T23:12:02.398Z,6.05
2023-10-15T23:14:07.693Z,6.02
2023-10-15T23:16:16.647Z,5.94
2023-10-15T23:18:23.040Z,5.80
2023-10-15T23:20:36.141Z,5.68
2023-10-15T23:22:38.590Z,6.17
2023-10-15T23:24:41.604Z,5.53
2023-10-15T23:26:45.352Z,5.99
2023-10-15T23:28:48.472Z,5.72
2023-10-15T23:30:53.526Z,5.53
2023-10-15T23:33:01.516Z,5.82
2023-10-15T23:35:04.848Z,5.83
2023-10-15T23:37:07.893Z,5.70
2023-10-15T23:39:17.959Z,5.74
2023-10-15T23:41:23.526Z,6.26
2023-10-15T23:43:27.631Z,5.67
2023-10-15T23:45:30.849Z,5.77
2023-10-15T23:47:35.089Z,5.86
2023-10-15T23:49:37.564Z,5.86
2023-10-15T23:51:42.247Z,5.89
2023-10-15T23:53:45.897Z,6.09
2023-10-15T23:55:50.218Z,5.90
2023-10-15T23:57:52.674Z,5.75
2023-10-15T23:59:55.445Z,6.23
